createdAt,value
2019-03-01T17:39:34.972Z,7.70
2019-03-01T17:42:03.480Z,7.80
2019-03-01T17:44:31.939Z,7.80
2019-03-01T17:47:00.462Z,7.70
2019-03-01T17:49:29.706Z,7.80
2019-03-01T17:51:59.162Z,7.80
2019-03-01T17:54:27.652Z,7.80
2019-03-01T17:56:57.206Z,7.80
2019-03-01T17:59:26.400Z,7.80
2019-03-01T18:01:54.866Z,7.80
2019-03-01T18:04:25.066Z,7.80
2019-03-01T18:06:53.549Z,7.80
2019-03-01T18:09:22.019Z,7.80
2019-03-01T18:11:50.486Z,7.80
2019-03-01T18:14:18.927Z,7.80
2019-03-01T18:16:47.326Z,7.80
2019-03-01T18:19:16.151Z,7.80
2019-03-01T18:21:46.429Z,7.80
2019-03-01T18:24:15.246Z,7.90
2019-03-01T18:26:43.898Z,7.80
2019-03-01T18:29:12.363Z,7.70
2019-03-01T18:31:40.779Z,7.80
2019-03-01T18:34:09.242Z,7.70
2019-03-01T18:36:37.654Z,7.70
2019-03-01T18:39:09.421Z,7.70
2019-03-01T18:41:38.746Z,7.80
2019-03-01T18:44:07.168Z,7.80
2019-03-01T18:46:35.655Z,7.80
2019-03-01T18:49:06.147Z,7.70
2019-03-01T18:51:34.157Z,7.70
2019-03-01T18:54:04.088Z,7.70
2019-03-01T18:56:32.921Z,7.70
2019-03-01T18:59:01.412Z,7.70
2019-03-01T19:01:29.870Z,7.70
2019-03-01T19:03:59.059Z,7.60
2019-03-01T19:06:29.265Z,7.60
2019-03-01T19:08:57.995Z,7.60
2019-03-01T19:11:26.375Z,7.60
2019-03-01T19:13:55.236Z,7.60
2019-03-01T19:16:25.361Z,7.60
2019-03-01T19:18:54.591Z,7.60
2019-03-01T19:21:23.069Z,7.60
2019-03-01T19:23:51.458Z,7.60
2019-03-01T19:26:19.867Z,7.60
2019-03-01T19:28:48.420Z,7.60
2019-03-01T19:31:16.907Z,7.60
2019-03-01T19:33:45.484Z,7.50
2019-03-01T19:36:13.946Z,7.50
2019-03-01T19:38:42.398Z,7.50
2019-03-01T19:41:10.858Z,7.40
2019-03-01T19:43:41.672Z,7.30
2019-03-01T19:46:09.300Z,7.30
2019-03-01T19:48:38.118Z,7.30
2019-03-01T19:51:06.660Z,7.30
2019-03-01T19:53:35.250Z,7.30
2019-03-01T19:56:03.683Z,7.30
2019-03-01T19:58:32.154Z,7.30
2019-03-01T20:01:01.380Z,7.20
2019-03-01T20:03:30.024Z,7.20
2019-03-01T20:05:58.409Z,7.20
2019-03-01T20:08:29.782Z,7.20
2019-03-01T20:10:56.955Z,7.10
2019-03-01T20:13:25.411Z,7.10
2019-03-01T20:15:53.940Z,7.10
2019-03-01T20:18:22.414Z,7.10
2019-03-01T20:20:50.819Z,7.00
2019-03-01T20:23:19.205Z,7.00
2019-03-01T20:25:50.655Z,7.00
2019-03-01T20:28:17.846Z,7.00
2019-03-01T20:30:46.698Z,7.00
2019-03-01T20:33:15.178Z,7.00
2019-03-01T20:35:43.648Z,7.00
2019-03-01T20:38:12.038Z,7.00
2019-03-01T20:40:40.538Z,7.00
2019-03-01T20:43:09.043Z,7.10
2019-03-01T20:45:39.352Z,7.00
2019-03-01T20:48:07.775Z,7.10
2019-03-01T20:50:36.631Z,7.00
2019-03-01T20:53:05.346Z,7.00
2019-03-01T20:55:37.042Z,7.00
2019-03-01T20:58:04.338Z,7.00
2019-03-01T21:00:32.913Z,7.00
2019-03-01T21:03:01.315Z,7.00
2019-03-01T21:05:30.548Z,6.90
2019-03-01T21:07:59.134Z,6.90
2019-03-01T21:10:29.461Z,6.80
2019-03-01T21:12:57.879Z,6.80
2019-03-01T21:15:26.351Z,6.80
2019-03-01T21:17:57.085Z,6.70
2019-03-01T21:20:24.981Z,6.70
2019-03-01T21:22:53.567Z,6.70
2019-03-01T21:25:23.174Z,6.70
2019-03-01T21:27:51.595Z,6.70
2019-03-01T21:30:33.705Z,6.70
2019-03-01T21:33:02.362Z,6.70
2019-03-01T21:35:30.785Z,6.60
2019-03-01T21:37:59.171Z,6.60
2019-03-01T21:40:27.638Z,6.60
2019-03-01T21:42:59.710Z,6.60
2019-03-01T21:45:26.203Z,6.60
2019-03-01T21:47:54.633Z,6.60
2019-03-01T21:50:23.018Z,6.60
2019-03-01T21:52:51.516Z,6.60
2019-03-01T21:55:28.006Z,6.60
2019-03-01T21:57:54.641Z,6.60
2019-03-01T22:00:29.370Z,6.60
2019-03-01T22:02:55.369Z,6.60
2019-03-01T22:05:23.786Z,6.60
2019-03-01T22:07:52.251Z,6.60
2019-03-01T22:10:20.641Z,6.60
2019-03-01T22:12:49.067Z,6.60
2019-03-01T22:15:26.796Z,6.70
2019-03-01T22:17:56.220Z,6.70
2019-03-01T22:20:24.593Z,6.70
2019-03-01T22:22:53.552Z,6.70
2019-03-01T22:25:21.943Z,6.70
2019-03-01T22:27:50.427Z,6.70
2019-03-01T22:30:23.041Z,6.70
2019-03-01T22:32:52.255Z,6.80
2019-03-01T22:35:20.681Z,6.80
2019-03-01T22:37:49.080Z,6.80
2019-03-01T22:40:17.549Z,6.90
2019-03-01T22:42:49.721Z,6.90
2019-03-01T22:45:18.185Z,6.90
2019-03-01T22:47:46.636Z,6.90
2019-03-01T22:50:17.877Z,6.90
2019-03-01T22:52:46.277Z,6.90
2019-03-01T22:55:18.884Z,6.90
2019-03-01T22:57:47.425Z,6.90
2019-03-01T23:00:47.726Z,6.90
2019-03-01T23:03:19.001Z,6.90
2019-03-01T23:05:48.026Z,6.90
2019-03-01T23:08:16.478Z,6.90
2019-03-01T23:10:44.907Z,7.00
2019-03-01T23:13:16.958Z,7.00
2019-03-01T23:15:44.535Z,7.00
2019-03-01T23:18:13.159Z,7.00
2019-03-01T23:20:41.957Z,7.00
2019-03-01T23:23:10.363Z,7.00
2019-03-01T23:25:39.106Z,7.10
2019-03-01T23:28:08.228Z,7.10
2019-03-01T23:30:37.589Z,7.10
2019-03-01T23:33:05.996Z,7.10
2019-03-01T23:35:34.496Z,7.10
2019-03-01T23:38:03.009Z,7.10
2019-03-01T23:40:32.714Z,7.10
2019-03-01T23:43:01.606Z,7.10
2019-03-01T23:45:29.994Z,7.10
2019-03-01T23:47:58.407Z,7.10
2019-03-01T23:50:26.816Z,7.10
2019-03-01T23:52:58.921Z,7.10
2019-03-01T23:55:25.353Z,7.20
2019-03-01T23:57:53.802Z,7.20
